Loudon, Tennessee
Current Conditions -  °F | °C
As of 4:53 PM on Friday 24 Oct 2014 (Local Time) from KTYS Reporting Station
Scattered Clouds Scattered Clouds  
Wind Chill: 67°   Ceiling: Unl
Heat Index: 67°   Visibility: 10mi
Dew Point: 40°   Wind: 0mph
Humidity: 37%   Direction: NA
Pressure: 30.03"   Gusts: NA
Location:  35.73°N, 84.33°W
Report Text: KTYS 242053Z 00000KT 10SM SCT100 19/04 A3003 RMK AO2 SLP164 T01940044 56013
Loading
Personal Weather Stations






























Interactive Weather Map New forecast layout! Learn more

10-Day Weather Forecast

Advertisements
Track Severe Weather on mobile